sensor_id;sensor_type;location;lat;lon;timestamp;P1;durP1;ratioP1;P2;durP2;ratioP2
39190;SDS011;24916;51.676;6.614;2024-02-15T00:00:44;2.05;;;1.52;;
39190;SDS011;24916;51.676;6.614;2024-02-15T00:03:10;2.75;;;1.35;;
39190;SDS011;24916;51.676;6.614;2024-02-15T00:05:38;1.60;;;1.15;;
39190;SDS011;24916;51.676;6.614;2024-02-15T00:08:07;2.85;;;1.27;;
39190;SDS011;24916;51.676;6.614;2024-02-15T00:10:34;2.10;;;1.20;;
39190;SDS011;24916;51.676;6.614;2024-02-15T00:12:59;2.17;;;1.23;;
39190;SDS011;24916;51.676;6.614;2024-02-15T00:15:25;2.75;;;1.20;;
39190;SDS011;24916;51.676;6.614;2024-02-15T00:17:50;2.35;;;1.40;;
39190;SDS011;24916;51.676;6.614;2024-02-15T00:20:16;2.35;;;1.38;;
39190;SDS011;24916;51.676;6.614;2024-02-15T00:22:42;2.60;;;1.38;;
39190;SDS011;24916;51.676;6.614;2024-02-15T00:25:08;1.80;;;1.20;;
39190;SDS011;24916;51.676;6.614;2024-02-15T00:27:34;2.17;;;1.30;;
39190;SDS011;24916;51.676;6.614;2024-02-15T00:29:59;1.80;;;1.10;;
39190;SDS011;24916;51.676;6.614;2024-02-15T00:32:25;1.80;;;1.38;;
39190;SDS011;24916;51.676;6.614;2024-02-15T00:34:50;2.08;;;1.27;;
39190;SDS011;24916;51.676;6.614;2024-02-15T00:37:15;2.10;;;1.40;;
39190;SDS011;24916;51.676;6.614;2024-02-15T00:39:41;1.63;;;1.13;;
39190;SDS011;24916;51.676;6.614;2024-02-15T00:42:08;1.77;;;1.30;;
39190;SDS011;24916;51.676;6.614;2024-02-15T00:44:34;2.17;;;1.25;;
39190;SDS011;24916;51.676;6.614;2024-02-15T00:46:59;1.85;;;1.23;;
39190;SDS011;24916;51.676;6.614;2024-02-15T00:49:24;3.20;;;1.30;;
39190;SDS011;24916;51.676;6.614;2024-02-15T00:51:52;2.30;;;1.20;;
39190;SDS011;24916;51.676;6.614;2024-02-15T00:54:18;2.88;;;1.20;;
39190;SDS011;24916;51.676;6.614;2024-02-15T00:56:43;1.88;;;1.30;;
39190;SDS011;24916;51.676;6.614;2024-02-15T00:59:08;2.17;;;1.40;;
39190;SDS011;24916;51.676;6.614;2024-02-15T01:01:34;2.63;;;1.20;;
39190;SDS011;24916;51.676;6.614;2024-02-15T01:04:02;1.70;;;1.30;;
39190;SDS011;24916;51.676;6.614;2024-02-15T01:06:28;1.88;;;1.20;;
39190;SDS011;24916;51.676;6.614;2024-02-15T01:08:53;2.10;;;1.45;;
39190;SDS011;24916;51.676;6.614;2024-02-15T01:11:18;2.03;;;1.20;;
39190;SDS011;24916;51.676;6.614;2024-02-15T01:13:44;2.00;;;1.25;;
39190;SDS011;24916;51.676;6.614;2024-02-15T01:16:09;3.83;;;1.33;;
39190;SDS011;24916;51.676;6.614;2024-02-15T01:18:34;1.98;;;1.17;;
39190;SDS011;24916;51.676;6.614;2024-02-15T01:21:00;2.40;;;1.13;;
39190;SDS011;24916;51.676;6.614;2024-02-15T01:23:25;2.88;;;1.38;;
39190;SDS011;24916;51.676;6.614;2024-02-15T01:25:51;2.17;;;1.35;;
39190;SDS011;24916;51.676;6.614;2024-02-15T01:28:16;1.80;;;1.30;;
39190;SDS011;24916;51.676;6.614;2024-02-15T01:30:42;2.35;;;1.30;;
39190;SDS011;24916;51.676;6.614;2024-02-15T01:33:11;2.00;;;1.10;;
39190;SDS011;24916;51.676;6.614;2024-02-15T01:35:36;1.65;;;1.00;;
39190;SDS011;24916;51.676;6.614;2024-02-15T01:38:01;1.42;;;1.17;;
39190;SDS011;24916;51.676;6.614;2024-02-15T01:40:27;1.75;;;1.20;;
39190;SDS011;24916;51.676;6.614;2024-02-15T01:42:52;1.38;;;1.08;;
39190;SDS011;24916;51.676;6.614;2024-02-15T01:45:17;1.30;;;1.00;;
39190;SDS011;24916;51.676;6.614;2024-02-15T01:47:42;2.60;;;1.35;;
39190;SDS011;24916;51.676;6.614;2024-02-15T01:50:11;2.72;;;1.30;;
39190;SDS011;24916;51.676;6.614;2024-02-15T01:52:37;1.35;;;1.05;;
39190;SDS011;24916;51.676;6.614;2024-02-15T01:55:04;1.77;;;1.20;;
39190;SDS011;24916;51.676;6.614;2024-02-15T01:57:33;1.42;;;1.10;;
39190;SDS011;24916;51.676;6.614;2024-02-15T01:59:58;2.17;;;1.38;;
39190;SDS011;24916;51.676;6.614;2024-02-15T02:02:24;3.13;;;1.30;;
39190;SDS011;24916;51.676;6.614;2024-02-15T02:04:51;2.67;;;1.38;;
39190;SDS011;24916;51.676;6.614;2024-02-15T02:07:16;2.17;;;1.40;;
39190;SDS011;24916;51.676;6.614;2024-02-15T02:09:42;1.77;;;1.10;;
39190;SDS011;24916;51.676;6.614;2024-02-15T02:12:07;1.85;;;1.17;;
39190;SDS011;24916;51.676;6.614;2024-02-15T02:14:32;1.30;;;0.98;;
39190;SDS011;24916;51.676;6.614;2024-02-15T02:17:10;1.40;;;1.10;;
39190;SDS011;24916;51.676;6.614;2024-02-15T02:19:35;2.38;;;1.25;;
39190;SDS011;24916;51.676;6.614;2024-02-15T02:22:03;1.98;;;1.17;;
39190;SDS011;24916;51.676;6.614;2024-02-15T02:24:30;1.60;;;1.13;;
39190;SDS011;24916;51.676;6.614;2024-02-15T02:26:58;1.85;;;1.10;;
39190;SDS011;24916;51.676;6.614;2024-02-15T02:29:24;1.42;;;1.08;;
39190;SDS011;24916;51.676;6.614;2024-02-15T02:31:51;2.47;;;1.30;;
39190;SDS011;24916;51.676;6.614;2024-02-15T02:34:17;2.33;;;1.13;;
39190;SDS011;24916;51.676;6.614;2024-02-15T02:36:44;2.35;;;1.25;;
39190;SDS011;24916;51.676;6.614;2024-02-15T02:39:11;1.38;;;0.93;;
39190;SDS011;24916;51.676;6.614;2024-02-15T02:41:36;1.23;;;0.93;;
39190;SDS011;24916;51.676;6.614;2024-02-15T02:44:02;1.88;;;1.13;;
39190;SDS011;24916;51.676;6.614;2024-02-15T02:46:27;1.95;;;1.17;;
39190;SDS011;24916;51.676;6.614;2024-02-15T02:48:52;2.97;;;1.23;;
39190;SDS011;24916;51.676;6.614;2024-02-15T02:51:18;1.50;;;1.00;;
39190;SDS011;24916;51.676;6.614;2024-02-15T02:53:43;2.03;;;1.20;;
39190;SDS011;24916;51.676;6.614;2024-02-15T02:56:08;0.93;;;0.82;;
39190;SDS011;24916;51.676;6.614;2024-02-15T02:58:34;2.65;;;1.40;;
39190;SDS011;24916;51.676;6.614;2024-02-15T03:00:59;1.95;;;1.35;;
39190;SDS011;24916;51.676;6.614;2024-02-15T03:03:27;1.58;;;1.08;;
39190;SDS011;24916;51.676;6.614;2024-02-15T03:05:52;1.92;;;1.25;;
39190;SDS011;24916;51.676;6.614;2024-02-15T03:08:19;1.35;;;1.00;;
39190;SDS011;24916;51.676;6.614;2024-02-15T03:10:44;3.08;;;1.10;;
39190;SDS011;24916;51.676;6.614;2024-02-15T03:13:09;1.88;;;1.27;;
39190;SDS011;24916;51.676;6.614;2024-02-15T03:15:35;2.28;;;1.05;;
39190;SDS011;24916;51.676;6.614;2024-02-15T03:18:00;1.13;;;1.00;;
39190;SDS011;24916;51.676;6.614;2024-02-15T03:20:25;1.73;;;1.15;;
39190;SDS011;24916;51.676;6.614;2024-02-15T03:22:54;1.80;;;1.20;;
39190;SDS011;24916;51.676;6.614;2024-02-15T03:25:19;1.58;;;1.27;;
39190;SDS011;24916;51.676;6.614;2024-02-15T03:27:48;1.52;;;1.30;;
39190;SDS011;24916;51.676;6.614;2024-02-15T03:30:13;1.33;;;1.10;;
39190;SDS011;24916;51.676;6.614;2024-02-15T03:32:39;1.27;;;0.98;;
39190;SDS011;24916;51.676;6.614;2024-02-15T03:35:05;2.17;;;1.20;;
39190;SDS011;24916;51.676;6.614;2024-02-15T03:37:31;1.27;;;1.10;;
39190;SDS011;24916;51.676;6.614;2024-02-15T03:39:58;1.15;;;1.00;;
39190;SDS011;24916;51.676;6.614;2024-02-15T03:42:23;1.70;;;1.10;;
39190;SDS011;24916;51.676;6.614;2024-02-15T03:44:49;1.90;;;1.45;;
39190;SDS011;24916;51.676;6.614;2024-02-15T03:47:14;1.70;;;1.10;;
39190;SDS011;24916;51.676;6.614;2024-02-15T03:49:40;1.92;;;1.30;;
39190;SDS011;24916;51.676;6.614;2024-02-15T03:52:07;1.60;;;1.25;;
39190;SDS011;24916;51.676;6.614;2024-02-15T03:54:35;1.10;;;0.93;;
39190;SDS011;24916;51.676;6.614;2024-02-15T03:57:00;1.73;;;1.10;;
39190;SDS011;24916;51.676;6.614;2024-02-15T03:59:25;1.27;;;1.07;;
39190;SDS011;24916;51.676;6.614;2024-02-15T04:01:54;1.50;;;1.10;;
39190;SDS011;24916;51.676;6.614;2024-02-15T04:04:20;1.58;;;1.02;;
39190;SDS011;24916;51.676;6.614;2024-02-15T04:06:48;1.63;;;1.13;;
39190;SDS011;24916;51.676;6.614;2024-02-15T04:09:14;1.40;;;0.95;;
39190;SDS011;24916;51.676;6.614;2024-02-15T04:11:39;1.83;;;1.15;;
39190;SDS011;24916;51.676;6.614;2024-02-15T04:14:05;2.17;;;1.20;;
39190;SDS011;24916;51.676;6.614;2024-02-15T04:16:30;2.50;;;1.20;;
39190;SDS011;24916;51.676;6.614;2024-02-15T04:18:56;2.05;;;1.17;;
39190;SDS011;24916;51.676;6.614;2024-02-15T04:21:30;1.42;;;1.05;;
39190;SDS011;24916;51.676;6.614;2024-02-15T04:23:55;2.00;;;1.33;;
39190;SDS011;24916;51.676;6.614;2024-02-15T04:26:21;2.13;;;1.20;;
39190;SDS011;24916;51.676;6.614;2024-02-15T04:28:46;2.10;;;1.10;;
39190;SDS011;24916;51.676;6.614;2024-02-15T04:31:17;2.03;;;1.20;;
39190;SDS011;24916;51.676;6.614;2024-02-15T04:33:42;2.10;;;1.40;;
39190;SDS011;24916;51.676;6.614;2024-02-15T04:36:07;2.22;;;1.15;;
39190;SDS011;24916;51.676;6.614;2024-02-15T04:38:33;1.63;;;1.10;;
39190;SDS011;24916;51.676;6.614;2024-02-15T04:41:01;1.20;;;1.00;;
39190;SDS011;24916;51.676;6.614;2024-02-15T04:43:27;1.25;;;0.88;;
39190;SDS011;24916;51.676;6.614;2024-02-15T04:45:52;1.10;;;0.95;;
39190;SDS011;24916;51.676;6.614;2024-02-15T04:48:18;2.38;;;1.30;;
39190;SDS011;24916;51.676;6.614;2024-02-15T04:50:44;1.52;;;1.00;;
39190;SDS011;24916;51.676;6.614;2024-02-15T04:53:10;1.90;;;1.17;;
39190;SDS011;24916;51.676;6.614;2024-02-15T04:55:39;1.60;;;1.10;;
39190;SDS011;24916;51.676;6.614;2024-02-15T04:58:04;2.00;;;1.13;;
39190;SDS011;24916;51.676;6.614;2024-02-15T05:00:30;1.50;;;0.98;;
39190;SDS011;24916;51.676;6.614;2024-02-15T05:02:55;1.27;;;0.90;;
39190;SDS011;24916;51.676;6.614;2024-02-15T05:05:21;1.75;;;1.10;;
39190;SDS011;24916;51.676;6.614;2024-02-15T05:07:48;2.42;;;0.80;;
39190;SDS011;24916;51.676;6.614;2024-02-15T05:10:16;1.38;;;0.85;;
39190;SDS011;24916;51.676;6.614;2024-02-15T05:12:41;1.10;;;0.90;;
39190;SDS011;24916;51.676;6.614;2024-02-15T05:15:08;1.27;;;1.00;;
39190;SDS011;24916;51.676;6.614;2024-02-15T05:17:35;1.50;;;0.93;;
39190;SDS011;24916;51.676;6.614;2024-02-15T05:20:00;2.30;;;1.20;;
39190;SDS011;24916;51.676;6.614;2024-02-15T05:22:25;1.67;;;1.17;;
39190;SDS011;24916;51.676;6.614;2024-02-15T05:24:54;2.05;;;1.33;;
39190;SDS011;24916;51.676;6.614;2024-02-15T05:27:19;1.30;;;1.10;;
39190;SDS011;24916;51.676;6.614;2024-02-15T05:29:44;1.25;;;0.80;;
39190;SDS011;24916;51.676;6.614;2024-02-15T05:32:10;1.77;;;1.08;;
39190;SDS011;24916;51.676;6.614;2024-02-15T05:34:36;2.33;;;1.20;;
39190;SDS011;24916;51.676;6.614;2024-02-15T05:37:04;2.33;;;1.10;;
39190;SDS011;24916;51.676;6.614;2024-02-15T05:39:31;2.13;;;1.10;;
39190;SDS011;24916;51.676;6.614;2024-02-15T05:41:56;1.60;;;1.20;;
39190;SDS011;24916;51.676;6.614;2024-02-15T05:44:25;1.45;;;0.93;;
39190;SDS011;24916;51.676;6.614;2024-02-15T05:46:50;2.03;;;1.38;;
39190;SDS011;24916;51.676;6.614;2024-02-15T05:49:16;1.20;;;1.00;;
39190;SDS011;24916;51.676;6.614;2024-02-15T05:51:42;1.95;;;1.10;;
39190;SDS011;24916;51.676;6.614;2024-02-15T05:54:07;1.17;;;0.95;;
39190;SDS011;24916;51.676;6.614;2024-02-15T05:56:33;2.03;;;1.20;;
39190;SDS011;24916;51.676;6.614;2024-02-15T05:58:58;1.20;;;1.08;;
39190;SDS011;24916;51.676;6.614;2024-02-15T06:01:23;2.17;;;1.20;;
39190;SDS011;24916;51.676;6.614;2024-02-15T06:03:49;1.40;;;1.00;;
39190;SDS011;24916;51.676;6.614;2024-02-15T06:06:14;1.38;;;1.00;;
39190;SDS011;24916;51.676;6.614;2024-02-15T06:08:39;1.30;;;0.90;;
39190;SDS011;24916;51.676;6.614;2024-02-15T06:11:04;3.72;;;1.10;;
39190;SDS011;24916;51.676;6.614;2024-02-15T06:13:30;1.75;;;1.20;;
39190;SDS011;24916;51.676;6.614;2024-02-15T06:15:56;1.92;;;1.10;;
39190;SDS011;24916;51.676;6.614;2024-02-15T06:18:22;1.75;;;1.10;;
39190;SDS011;24916;51.676;6.614;2024-02-15T06:20:49;1.45;;;1.13;;
39190;SDS011;24916;51.676;6.614;2024-02-15T06:23:15;1.58;;;1.10;;
39190;SDS011;24916;51.676;6.614;2024-02-15T06:25:40;1.02;;;0.80;;
39190;SDS011;24916;51.676;6.614;2024-02-15T06:28:06;1.48;;;1.20;;
39190;SDS011;24916;51.676;6.614;2024-02-15T06:30:38;1.73;;;1.20;;
39190;SDS011;24916;51.676;6.614;2024-02-15T06:33:22;1.23;;;1.00;;
39190;SDS011;24916;51.676;6.614;2024-02-15T06:36:06;1.50;;;1.00;;
39190;SDS011;24916;51.676;6.614;2024-02-15T06:38:50;1.30;;;0.90;;
39190;SDS011;24916;51.676;6.614;2024-02-15T06:41:34;1.15;;;0.93;;
39190;SDS011;24916;51.676;6.614;2024-02-15T06:43:59;2.22;;;0.98;;
39190;SDS011;24916;51.676;6.614;2024-02-15T06:46:25;1.70;;;1.20;;
39190;SDS011;24916;51.676;6.614;2024-02-15T06:48:50;1.75;;;1.17;;
39190;SDS011;24916;51.676;6.614;2024-02-15T06:51:15;1.17;;;0.90;;
39190;SDS011;24916;51.676;6.614;2024-02-15T06:53:41;2.58;;;1.23;;
39190;SDS011;24916;51.676;6.614;2024-02-15T06:56:09;1.17;;;0.90;;
39190;SDS011;24916;51.676;6.614;2024-02-15T06:58:35;1.10;;;1.00;;
39190;SDS011;24916;51.676;6.614;2024-02-15T07:01:00;1.30;;;1.00;;
39190;SDS011;24916;51.676;6.614;2024-02-15T07:03:27;0.90;;;0.70;;
39190;SDS011;24916;51.676;6.614;2024-02-15T07:05:54;1.98;;;1.10;;
39190;SDS011;24916;51.676;6.614;2024-02-15T07:08:21;1.38;;;0.90;;
39190;SDS011;24916;51.676;6.614;2024-02-15T07:10:46;2.20;;;1.02;;
39190;SDS011;24916;51.676;6.614;2024-02-15T07:13:11;1.33;;;1.08;;
39190;SDS011;24916;51.676;6.614;2024-02-15T07:15:36;1.27;;;1.02;;
39190;SDS011;24916;51.676;6.614;2024-02-15T07:18:04;2.08;;;1.30;;
39190;SDS011;24916;51.676;6.614;2024-02-15T07:20:31;2.13;;;1.35;;
39190;SDS011;24916;51.676;6.614;2024-02-15T07:22:56;1.70;;;1.10;;
39190;SDS011;24916;51.676;6.614;2024-02-15T07:25:23;1.73;;;1.00;;
39190;SDS011;24916;51.676;6.614;2024-02-15T07:27:48;1.90;;;1.20;;
39190;SDS011;24916;51.676;6.614;2024-02-15T07:30:13;2.00;;;1.27;;
39190;SDS011;24916;51.676;6.614;2024-02-15T07:32:39;1.40;;;1.10;;
39190;SDS011;24916;51.676;6.614;2024-02-15T07:35:05;2.30;;;1.10;;
39190;SDS011;24916;51.676;6.614;2024-02-15T07:37:33;1.95;;;1.10;;
39190;SDS011;24916;51.676;6.614;2024-02-15T07:39:58;1.42;;;1.00;;
39190;SDS011;24916;51.676;6.614;2024-02-15T07:42:24;2.35;;;1.10;;
39190;SDS011;24916;51.676;6.614;2024-02-15T07:44:50;1.80;;;1.10;;
39190;SDS011;24916;51.676;6.614;2024-02-15T07:47:15;2.78;;;1.40;;
39190;SDS011;24916;51.676;6.614;2024-02-15T07:49:45;1.38;;;1.10;;
39190;SDS011;24916;51.676;6.614;2024-02-15T07:52:10;1.73;;;1.00;;
39190;SDS011;24916;51.676;6.614;2024-02-15T07:54:35;2.38;;;1.10;;
39190;SDS011;24916;51.676;6.614;2024-02-15T07:57:00;2.17;;;1.60;;
39190;SDS011;24916;51.676;6.614;2024-02-15T07:59:26;2.80;;;1.38;;
39190;SDS011;24916;51.676;6.614;2024-02-15T08:01:53;1.70;;;1.30;;
39190;SDS011;24916;51.676;6.614;2024-02-15T08:04:19;2.13;;;0.98;;
39190;SDS011;24916;51.676;6.614;2024-02-15T08:06:45;1.38;;;1.10;;
39190;SDS011;24916;51.676;6.614;2024-02-15T08:09:10;3.10;;;1.30;;
39190;SDS011;24916;51.676;6.614;2024-02-15T08:11:39;3.28;;;1.30;;
39190;SDS011;24916;51.676;6.614;2024-02-15T08:14:05;1.73;;;1.05;;
39190;SDS011;24916;51.676;6.614;2024-02-15T08:16:33;1.60;;;1.20;;
39190;SDS011;24916;51.676;6.614;2024-02-15T08:18:59;2.95;;;1.30;;
39190;SDS011;24916;51.676;6.614;2024-02-15T08:21:30;1.27;;;0.90;;
39190;SDS011;24916;51.676;6.614;2024-02-15T08:23:58;1.98;;;1.02;;
39190;SDS011;24916;51.676;6.614;2024-02-15T08:26:23;3.35;;;1.20;;
39190;SDS011;24916;51.676;6.614;2024-02-15T08:28:49;1.98;;;1.23;;
39190;SDS011;24916;51.676;6.614;2024-02-15T08:31:14;1.88;;;1.35;;
39190;SDS011;24916;51.676;6.614;2024-02-15T08:33:40;1.70;;;1.30;;
39190;SDS011;24916;51.676;6.614;2024-02-15T08:36:06;4.22;;;1.33;;
39190;SDS011;24916;51.676;6.614;2024-02-15T08:38:32;1.38;;;1.10;;
39190;SDS011;24916;51.676;6.614;2024-02-15T08:40:58;2.72;;;1.40;;
39190;SDS011;24916;51.676;6.614;2024-02-15T08:43:23;2.03;;;1.20;;
39190;SDS011;24916;51.676;6.614;2024-02-15T08:45:49;1.45;;;1.02;;
39190;SDS011;24916;51.676;6.614;2024-02-15T08:48:15;2.13;;;1.20;;
39190;SDS011;24916;51.676;6.614;2024-02-15T08:50:40;1.50;;;1.17;;
39190;SDS011;24916;51.676;6.614;2024-02-15T08:53:06;1.33;;;0.98;;
39190;SDS011;24916;51.676;6.614;2024-02-15T08:55:32;2.15;;;1.25;;
39190;SDS011;24916;51.676;6.614;2024-02-15T08:57:57;2.33;;;1.30;;
39190;SDS011;24916;51.676;6.614;2024-02-15T09:00:24;2.50;;;1.20;;
39190;SDS011;24916;51.676;6.614;2024-02-15T09:02:51;2.17;;;1.23;;
39190;SDS011;24916;51.676;6.614;2024-02-15T09:05:18;3.08;;;1.55;;
39190;SDS011;24916;51.676;6.614;2024-02-15T09:07:44;2.70;;;1.30;;
39190;SDS011;24916;51.676;6.614;2024-02-15T09:10:12;2.28;;;1.30;;
39190;SDS011;24916;51.676;6.614;2024-02-15T09:12:38;2.42;;;1.25;;
39190;SDS011;24916;51.676;6.614;2024-02-15T09:15:05;2.22;;;1.30;;
39190;SDS011;24916;51.676;6.614;2024-02-15T09:17:30;3.28;;;1.17;;
39190;SDS011;24916;51.676;6.614;2024-02-15T09:19:57;1.67;;;1.08;;
39190;SDS011;24916;51.676;6.614;2024-02-15T09:22:22;1.38;;;1.00;;
39190;SDS011;24916;51.676;6.614;2024-02-15T09:24:48;2.85;;;1.30;;
39190;SDS011;24916;51.676;6.614;2024-02-15T09:27:13;4.47;;;1.60;;
39190;SDS011;24916;51.676;6.614;2024-02-15T09:29:38;1.73;;;1.08;;
39190;SDS011;24916;51.676;6.614;2024-02-15T09:32:07;2.38;;;1.27;;
39190;SDS011;24916;51.676;6.614;2024-02-15T09:34:32;1.58;;;0.95;;
39190;SDS011;24916;51.676;6.614;2024-02-15T09:36:58;2.65;;;1.10;;
39190;SDS011;24916;51.676;6.614;2024-02-15T09:39:23;2.25;;;1.25;;
39190;SDS011;24916;51.676;6.614;2024-02-15T09:41:48;2.40;;;1.10;;
39190;SDS011;24916;51.676;6.614;2024-02-15T09:44:20;2.47;;;1.20;;
39190;SDS011;24916;51.676;6.614;2024-02-15T09:46:46;2.13;;;1.20;;
39190;SDS011;24916;51.676;6.614;2024-02-15T09:49:13;3.08;;;1.42;;
39190;SDS011;24916;51.676;6.614;2024-02-15T09:51:39;1.70;;;1.20;;
39190;SDS011;24916;51.676;6.614;2024-02-15T09:54:05;1.65;;;1.17;;
39190;SDS011;24916;51.676;6.614;2024-02-15T09:56:31;1.88;;;1.10;;
39190;SDS011;24916;51.676;6.614;2024-02-15T09:58:59;2.70;;;1.27;;
39190;SDS011;24916;51.676;6.614;2024-02-15T10:01:24;3.10;;;1.42;;
39190;SDS011;24916;51.676;6.614;2024-02-15T10:03:50;2.40;;;1.20;;
39190;SDS011;24916;51.676;6.614;2024-02-15T10:06:16;2.30;;;1.40;;
39190;SDS011;24916;51.676;6.614;2024-02-15T10:08:43;2.47;;;1.38;;
39190;SDS011;24916;51.676;6.614;2024-02-15T10:11:08;2.50;;;1.23;;
39190;SDS011;24916;51.676;6.614;2024-02-15T10:13:34;2.40;;;1.30;;
39190;SDS011;24916;51.676;6.614;2024-02-15T10:15:59;2.13;;;1.30;;
39190;SDS011;24916;51.676;6.614;2024-02-15T10:18:24;1.90;;;1.20;;
39190;SDS011;24916;51.676;6.614;2024-02-15T10:20:59;2.20;;;1.27;;
39190;SDS011;24916;51.676;6.614;2024-02-15T10:23:24;2.85;;;1.45;;
39190;SDS011;24916;51.676;6.614;2024-02-15T10:25:49;2.17;;;1.50;;
39190;SDS011;24916;51.676;6.614;2024-02-15T10:28:20;3.03;;;1.58;;
39190;SDS011;24916;51.676;6.614;2024-02-15T10:30:45;2.63;;;1.55;;
39190;SDS011;24916;51.676;6.614;2024-02-15T10:33:26;1.83;;;1.02;;
39190;SDS011;24916;51.676;6.614;2024-02-15T10:36:06;2.33;;;1.30;;
39190;SDS011;24916;51.676;6.614;2024-02-15T10:38:33;2.17;;;1.15;;
39190;SDS011;24916;51.676;6.614;2024-02-15T10:41:02;2.25;;;1.30;;
39190;SDS011;24916;51.676;6.614;2024-02-15T10:43:30;2.63;;;1.50;;
39190;SDS011;24916;51.676;6.614;2024-02-15T10:45:55;2.95;;;1.33;;
39190;SDS011;24916;51.676;6.614;2024-02-15T10:48:21;1.83;;;1.20;;
39190;SDS011;24916;51.676;6.614;2024-02-15T10:50:46;2.53;;;1.48;;
39190;SDS011;24916;51.676;6.614;2024-02-15T10:53:28;2.25;;;1.50;;
39190;SDS011;24916;51.676;6.614;2024-02-15T10:56:17;2.65;;;1.42;;
39190;SDS011;24916;51.676;6.614;2024-02-15T10:58:53;3.13;;;1.45;;
39190;SDS011;24916;51.676;6.614;2024-02-15T11:01:21;2.55;;;1.40;;
39190;SDS011;24916;51.676;6.614;2024-02-15T11:04:00;1.75;;;1.30;;
39190;SDS011;24916;51.676;6.614;2024-02-15T11:06:28;2.28;;;1.40;;
39190;SDS011;24916;51.676;6.614;2024-02-15T11:08:55;2.47;;;1.50;;
39190;SDS011;24916;51.676;6.614;2024-02-15T11:11:20;4.05;;;1.25;;
39190;SDS011;24916;51.676;6.614;2024-02-15T11:13:47;2.90;;;1.42;;
39190;SDS011;24916;51.676;6.614;2024-02-15T11:18:59;2.53;;;1.50;;
39190;SDS011;24916;51.676;6.614;2024-02-15T11:21:52;3.10;;;1.60;;
39190;SDS011;24916;51.676;6.614;2024-02-15T11:25:11;2.85;;;1.60;;
39190;SDS011;24916;51.676;6.614;2024-02-15T11:27:05;4.00;;;1.58;;
39190;SDS011;24916;51.676;6.614;2024-02-15T11:29:47;4.95;;;1.20;;
39190;SDS011;24916;51.676;6.614;2024-02-15T11:32:59;3.08;;;1.45;;
39190;SDS011;24916;51.676;6.614;2024-02-15T11:38:09;2.53;;;1.55;;
39190;SDS011;24916;51.676;6.614;2024-02-15T11:42:37;2.10;;;1.60;;
39190;SDS011;24916;51.676;6.614;2024-02-15T11:45:05;2.30;;;1.48;;
39190;SDS011;24916;51.676;6.614;2024-02-15T11:47:32;3.03;;;1.45;;
39190;SDS011;24916;51.676;6.614;2024-02-15T11:49:59;2.55;;;1.50;;
39190;SDS011;24916;51.676;6.614;2024-02-15T11:52:24;2.53;;;1.40;;
39190;SDS011;24916;51.676;6.614;2024-02-15T11:54:49;3.20;;;1.40;;
39190;SDS011;24916;51.676;6.614;2024-02-15T11:57:15;3.67;;;1.40;;
39190;SDS011;24916;51.676;6.614;2024-02-15T11:59:47;2.28;;;1.42;;
39190;SDS011;24916;51.676;6.614;2024-02-15T12:02:21;2.27;;;1.40;;
39190;SDS011;24916;51.676;6.614;2024-02-15T12:05:05;2.80;;;1.65;;
39190;SDS011;24916;51.676;6.614;2024-02-15T12:07:49;4.28;;;1.70;;
39190;SDS011;24916;51.676;6.614;2024-02-15T12:10:33;2.80;;;1.50;;
39190;SDS011;24916;51.676;6.614;2024-02-15T12:13:18;2.67;;;1.38;;
39190;SDS011;24916;51.676;6.614;2024-02-15T12:16:02;1.77;;;1.30;;
39190;SDS011;24916;51.676;6.614;2024-02-15T12:18:46;2.58;;;1.38;;
39190;SDS011;24916;51.676;6.614;2024-02-15T12:21:17;2.72;;;1.60;;
39190;SDS011;24916;51.676;6.614;2024-02-15T12:23:44;3.08;;;1.55;;
39190;SDS011;24916;51.676;6.614;2024-02-15T12:26:10;2.03;;;1.40;;
39190;SDS011;24916;51.676;6.614;2024-02-15T12:28:35;1.50;;;1.23;;
39190;SDS011;24916;51.676;6.614;2024-02-15T12:31:01;3.17;;;1.38;;
39190;SDS011;24916;51.676;6.614;2024-02-15T12:33:27;4.50;;;1.73;;
39190;SDS011;24916;51.676;6.614;2024-02-15T12:35:52;4.05;;;1.63;;
39190;SDS011;24916;51.676;6.614;2024-02-15T12:38:29;4.38;;;1.90;;
39190;SDS011;24916;51.676;6.614;2024-02-15T12:40:54;2.97;;;1.70;;
39190;SDS011;24916;51.676;6.614;2024-02-15T12:43:19;2.38;;;1.63;;
39190;SDS011;24916;51.676;6.614;2024-02-15T12:45:44;4.50;;;1.77;;
39190;SDS011;24916;51.676;6.614;2024-02-15T12:48:10;2.38;;;1.38;;
39190;SDS011;24916;51.676;6.614;2024-02-15T12:50:40;3.45;;;1.70;;
39190;SDS011;24916;51.676;6.614;2024-02-15T12:53:05;4.70;;;1.60;;
39190;SDS011;24916;51.676;6.614;2024-02-15T12:55:32;2.67;;;1.40;;
39190;SDS011;24916;51.676;6.614;2024-02-15T12:57:59;3.25;;;1.50;;
39190;SDS011;24916;51.676;6.614;2024-02-15T13:00:28;3.28;;;1.40;;
39190;SDS011;24916;51.676;6.614;2024-02-15T13:02:54;2.08;;;1.27;;
39190;SDS011;24916;51.676;6.614;2024-02-15T13:05:20;2.78;;;1.30;;
39190;SDS011;24916;51.676;6.614;2024-02-15T13:07:49;2.67;;;1.50;;
39190;SDS011;24916;51.676;6.614;2024-02-15T13:10:14;2.45;;;1.48;;
39190;SDS011;24916;51.676;6.614;2024-02-15T13:12:41;2.50;;;1.45;;
39190;SDS011;24916;51.676;6.614;2024-02-15T13:15:06;2.55;;;1.40;;
39190;SDS011;24916;51.676;6.614;2024-02-15T13:17:32;3.72;;;1.48;;
39190;SDS011;24916;51.676;6.614;2024-02-15T13:19:58;3.10;;;1.40;;
39190;SDS011;24916;51.676;6.614;2024-02-15T13:22:29;2.20;;;1.63;;
39190;SDS011;24916;51.676;6.614;2024-02-15T13:24:54;2.28;;;1.20;;
39190;SDS011;24916;51.676;6.614;2024-02-15T13:27:23;2.72;;;1.63;;
39190;SDS011;24916;51.676;6.614;2024-02-15T13:29:49;2.70;;;1.52;;
39190;SDS011;24916;51.676;6.614;2024-02-15T13:32:14;2.65;;;1.48;;
39190;SDS011;24916;51.676;6.614;2024-02-15T13:34:42;1.98;;;1.08;;
39190;SDS011;24916;51.676;6.614;2024-02-15T13:37:07;2.05;;;1.23;;
39190;SDS011;24916;51.676;6.614;2024-02-15T13:39:32;2.08;;;1.30;;
39190;SDS011;24916;51.676;6.614;2024-02-15T13:42:00;3.35;;;1.50;;
39190;SDS011;24916;51.676;6.614;2024-02-15T13:44:26;3.13;;;1.38;;
39190;SDS011;24916;51.676;6.614;2024-02-15T13:46:51;2.50;;;1.45;;
39190;SDS011;24916;51.676;6.614;2024-02-15T13:49:20;2.70;;;1.40;;
39190;SDS011;24916;51.676;6.614;2024-02-15T13:51:46;1.75;;;1.30;;
39190;SDS011;24916;51.676;6.614;2024-02-15T13:54:11;2.38;;;1.38;;
39190;SDS011;24916;51.676;6.614;2024-02-15T13:56:36;2.25;;;1.45;;
39190;SDS011;24916;51.676;6.614;2024-02-15T13:59:01;3.17;;;1.58;;
39190;SDS011;24916;51.676;6.614;2024-02-15T14:01:27;3.28;;;1.83;;
39190;SDS011;24916;51.676;6.614;2024-02-15T14:03:53;2.33;;;1.45;;
39190;SDS011;24916;51.676;6.614;2024-02-15T14:06:18;4.03;;;1.73;;
39190;SDS011;24916;51.676;6.614;2024-02-15T14:08:44;3.55;;;1.63;;
39190;SDS011;24916;51.676;6.614;2024-02-15T14:11:09;2.33;;;1.58;;
39190;SDS011;24916;51.676;6.614;2024-02-15T14:13:34;3.47;;;1.70;;
39190;SDS011;24916;51.676;6.614;2024-02-15T14:16:00;2.95;;;1.80;;
39190;SDS011;24916;51.676;6.614;2024-02-15T14:18:26;10.88;;;1.73;;
39190;SDS011;24916;51.676;6.614;2024-02-15T14:20:53;2.13;;;1.50;;
39190;SDS011;24916;51.676;6.614;2024-02-15T14:23:20;3.55;;;1.70;;
39190;SDS011;24916;51.676;6.614;2024-02-15T14:25:45;4.38;;;1.70;;
39190;SDS011;24916;51.676;6.614;2024-02-15T14:28:10;2.83;;;1.67;;
39190;SDS011;24916;51.676;6.614;2024-02-15T14:30:36;4.00;;;1.77;;
39190;SDS011;24916;51.676;6.614;2024-02-15T14:33:20;2.95;;;1.70;;
39190;SDS011;24916;51.676;6.614;2024-02-15T14:35:47;2.53;;;1.48;;
39190;SDS011;24916;51.676;6.614;2024-02-15T14:38:13;3.00;;;1.60;;
39190;SDS011;24916;51.676;6.614;2024-02-15T14:40:41;3.50;;;1.67;;
39190;SDS011;24916;51.676;6.614;2024-02-15T14:43:08;2.47;;;1.60;;
39190;SDS011;24916;51.676;6.614;2024-02-15T14:45:33;2.60;;;1.60;;
39190;SDS011;24916;51.676;6.614;2024-02-15T14:47:59;2.90;;;1.50;;
39190;SDS011;24916;51.676;6.614;2024-02-15T14:50:25;3.30;;;1.77;;
39190;SDS011;24916;51.676;6.614;2024-02-15T14:52:51;2.42;;;1.50;;
39190;SDS011;24916;51.676;6.614;2024-02-15T14:55:18;3.20;;;1.90;;